Time;durP1;ratioP1;P1;durP2;ratioP2;P2;SDS_P1;SDS_P2;PMS_P1;PMS_P2;Temp;Humidity;BMP_temperature;BMP_pressure;BME280_temperature;BME280_humidity;BME280_pressure;Samples;Min_cycle;Max_cycle;Signal;HPM_P1;HPM_P2
2023/10/01 00:00:08;;;;;;;4.27;4.10;;;22.30;99.90;;;;;;5006645;28;20477;-71
2023/10/01 00:02:36;;;;;;;5.20;4.90;;;22.30;99.90;;;;;;4986314;28;20470;-71
2023/10/01 00:05:04;;;;;;;4.30;4.10;;;22.20;99.90;;;;;;5003414;28;20455;-71
2023/10/01 00:07:32;;;;;;;4.50;4.30;;;22.20;99.90;;;;;;5005921;28;20607;-71
2023/10/01 00:10:01;;;;;;;3.97;3.83;;;22.20;99.90;;;;;;5006443;28;20474;-71
2023/10/01 00:12:29;;;;;;;5.00;4.80;;;22.20;99.90;;;;;;5004355;28;20442;-71
2023/10/01 00:14:57;;;;;;;4.10;4.00;;;22.20;99.90;;;;;;5003263;28;20455;-71
2023/10/01 00:17:24;;;;;;;4.50;4.30;;;22.20;99.90;;;;;;5004537;28;21001;-71
2023/10/01 00:19:51;;;;;;;4.87;4.57;;;22.20;99.90;;;;;;5000681;28;21057;-71
2023/10/01 00:22:18;;;;;;;4.20;4.00;;;22.20;99.90;;;;;;5003473;28;20861;-71
2023/10/01 00:24:45;;;;;;;4.60;4.40;;;22.20;99.90;;;;;;5006435;28;20441;-71
2023/10/01 00:27:12;;;;;;;4.53;4.40;;;22.20;99.90;;;;;;5006518;28;20824;-71
2023/10/01 00:29:39;;;;;;;4.23;4.03;;;22.20;99.90;;;;;;4997679;28;20477;-71
2023/10/01 00:32:08;;;;;;;4.07;3.90;;;22.20;99.90;;;;;;5006050;28;20490;-71
2023/10/01 00:34:35;;;;;;;3.77;3.67;;;22.20;99.90;;;;;;5003307;28;20450;-71
2023/10/01 00:37:03;;;;;;;3.80;3.60;;;22.20;99.90;;;;;;5002968;28;20513;-71
2023/10/01 00:39:29;;;;;;;4.30;4.10;;;22.20;99.90;;;;;;5004773;28;20467;-71
2023/10/01 00:41:56;;;;;;;3.80;3.70;;;22.10;99.90;;;;;;5005928;28;20474;-71
2023/10/01 00:44:24;;;;;;;4.50;4.30;;;22.10;99.90;;;;;;5004705;28;20481;-71
2023/10/01 00:46:50;;;;;;;4.90;4.70;;;22.10;99.90;;;;;;5002925;28;20446;-71
2023/10/01 00:49:22;;;;;;;3.97;3.87;;;22.10;99.90;;;;;;5002652;28;20495;-71
2023/10/01 00:51:51;;;;;;;4.80;4.60;;;22.10;99.90;;;;;;5005788;28;20474;-71
2023/10/01 00:54:17;;;;;;;3.93;3.73;;;22.10;99.90;;;;;;5005307;28;20450;-71
2023/10/01 00:56:44;;;;;;;4.60;4.40;;;22.10;99.90;;;;;;5002473;28;20521;-71
2023/10/01 00:59:13;;;;;;;4.30;4.10;;;22.10;99.90;;;;;;5004481;28;20505;-71
2023/10/01 01:01:41;;;;;;;3.83;3.63;;;22.10;99.90;;;;;;4994287;28;20526;-71
2023/10/01 01:04:17;;;;;;;4.30;4.10;;;22.10;99.90;;;;;;5002024;28;20446;-71
2023/10/01 01:06:47;;;;;;;4.20;4.00;;;22.10;99.90;;;;;;4994849;28;21049;-71
2023/10/01 01:09:15;;;;;;;4.33;4.13;;;22.10;99.90;;;;;;5004595;28;20489;-71
2023/10/01 01:11:46;;;;;;;4.30;4.00;;;22.10;99.90;;;;;;4999719;28;20446;-71
2023/10/01 01:14:13;;;;;;;4.40;4.20;;;22.10;99.90;;;;;;5000980;28;20481;-71
2023/10/01 01:16:40;;;;;;;4.70;4.40;;;22.10;99.90;;;;;;5001838;28;20502;-71
2023/10/01 01:19:09;;;;;;;5.03;4.83;;;22.10;99.90;;;;;;5004081;28;20470;-71
2023/10/01 01:21:41;;;;;;;5.00;4.67;;;22.00;99.90;;;;;;5002376;28;20712;-71
2023/10/01 01:24:10;;;;;;;4.47;4.27;;;22.10;99.90;;;;;;5002162;28;20447;-71
2023/10/01 01:26:37;;;;;;;3.87;3.63;;;22.10;99.90;;;;;;5004652;28;20478;-71
2023/10/01 01:29:17;;;;;;;4.33;4.13;;;22.10;99.90;;;;;;5005229;28;20508;-71
2023/10/01 01:31:45;;;;;;;4.53;4.23;;;22.10;99.90;;;;;;4993947;28;20474;-71
2023/10/01 01:34:13;;;;;;;4.00;3.90;;;22.00;99.90;;;;;;5001952;28;20482;-71
2023/10/01 01:36:42;;;;;;;4.63;4.43;;;22.00;99.90;;;;;;5004672;28;20488;-71
2023/10/01 01:39:26;;;;;;;3.90;3.80;;;22.00;99.90;;;;;;5005065;28;20466;-71
2023/10/01 01:41:54;;;;;;;4.03;3.83;;;22.00;99.90;;;;;;4995036;28;20479;-71
2023/10/01 01:44:23;;;;;;;5.17;4.97;;;22.00;99.90;;;;;;5002252;28;20458;-71
2023/10/01 01:46:59;;;;;;;4.73;4.43;;;22.00;99.90;;;;;;5004699;28;20496;-71
2023/10/01 01:49:27;;;;;;;4.70;4.40;;;22.00;99.90;;;;;;5004734;28;20461;-71
2023/10/01 01:52:03;;;;;;;4.17;3.97;;;22.00;99.90;;;;;;5003643;28;20449;-71
2023/10/01 01:54:34;;;;;;;5.23;4.93;;;22.00;99.90;;;;;;5000008;28;20831;-71
2023/10/01 01:57:02;;;;;;;3.80;3.70;;;22.00;99.90;;;;;;5001349;28;20896;-71
2023/10/01 01:59:31;;;;;;;4.80;4.50;;;22.00;99.90;;;;;;5000625;28;20471;-71
2023/10/01 02:01:59;;;;;;;4.40;4.20;;;22.00;99.90;;;;;;5001000;28;20542;-71
2023/10/01 02:04:26;;;;;;;4.93;4.63;;;22.00;99.90;;;;;;5005663;28;20461;-71
2023/10/01 02:06:54;;;;;;;5.07;4.77;;;22.00;99.90;;;;;;5001232;28;20442;-70
2023/10/01 02:09:24;;;;;;;4.93;4.63;;;22.00;99.90;;;;;;5001351;28;20498;-71
2023/10/01 02:11:53;;;;;;;4.60;4.30;;;22.00;99.90;;;;;;5004353;28;20489;-71
2023/10/01 02:14:35;;;;;;;4.53;4.33;;;22.00;99.90;;;;;;5003700;28;20454;-71
2023/10/01 02:17:13;;;;;;;4.60;4.30;;;22.00;99.90;;;;;;5000228;28;20581;-71
2023/10/01 02:19:40;;;;;;;4.13;3.93;;;21.90;99.90;;;;;;5003799;28;21186;-71
2023/10/01 02:22:08;;;;;;;4.80;4.60;;;21.90;99.90;;;;;;5004243;28;20934;-71
2023/10/01 02:24:55;;;;;;;4.30;4.10;;;21.90;99.90;;;;;;5001659;28;20454;-71
2023/10/01 02:27:26;;;;;;;4.40;4.10;;;21.90;99.90;;;;;;5000888;28;20449;-70
2023/10/01 02:30:14;;;;;;;4.70;4.50;;;21.90;99.90;;;;;;5000622;28;20471;-70
2023/10/01 02:33:15;;;;;;;4.33;4.03;;;21.90;99.90;;;;;;5003596;28;20446;-71
2023/10/01 02:35:37;;;;;;;4.80;4.60;;;21.90;99.90;;;;;;5002221;28;20815;-71
2023/10/01 02:38:04;;;;;;;4.67;4.43;;;21.90;99.90;;;;;;4998501;28;20514;-70
2023/10/01 02:40:36;;;;;;;4.17;4.07;;;21.90;99.90;;;;;;5002291;28;20971;-71
2023/10/01 02:43:06;;;;;;;4.23;3.90;;;21.90;99.90;;;;;;5003069;28;20442;-71
2023/10/01 02:45:35;;;;;;;6.60;6.20;;;21.90;99.90;;;;;;5002533;28;20451;-71
2023/10/01 02:48:13;;;;;;;4.10;3.90;;;21.90;99.90;;;;;;5003804;28;20936;-71
2023/10/01 02:50:48;;;;;;;4.40;4.10;;;21.90;99.90;;;;;;5000535;28;21117;-71
2023/10/01 02:53:18;;;;;;;4.97;4.67;;;21.90;99.90;;;;;;5000037;28;20478;-71
2023/10/01 02:55:46;;;;;;;4.17;4.00;;;21.90;99.90;;;;;;4992545;28;20510;-71
2023/10/01 02:58:18;;;;;;;4.83;4.37;;;21.90;99.90;;;;;;5000299;28;20948;-71
2023/10/01 03:00:45;;;;;;;4.10;4.00;;;21.90;99.90;;;;;;4987860;28;20442;-71
2023/10/01 03:03:15;;;;;;;4.37;4.00;;;21.90;99.90;;;;;;5003343;28;20977;-71
2023/10/01 03:05:46;;;;;;;4.00;3.80;;;21.90;99.90;;;;;;5000460;28;20527;-71
2023/10/01 03:08:40;;;;;;;4.60;4.40;;;21.90;99.90;;;;;;5000309;28;20446;-71
2023/10/01 03:11:08;;;;;;;4.53;4.33;;;21.90;99.90;;;;;;4995443;28;20446;-71
2023/10/01 03:13:37;;;;;;;4.23;4.03;;;21.90;99.90;;;;;;5000475;28;20466;-71
2023/10/01 03:18:54;;;;;;;5.30;4.97;;;21.80;99.90;;;;;;4992954;28;20959;-71
2023/10/01 03:22:08;;;;;;;4.40;4.20;;;21.80;99.90;;;;;;5000154;28;20450;-71
2023/10/01 03:24:10;;;;;;;4.90;4.60;;;21.90;99.90;;;;;;4995013;28;20442;-71
2023/10/01 03:26:44;;;;;;;4.10;3.80;;;21.90;99.90;;;;;;5002494;28;20439;-71
2023/10/01 03:29:17;;;;;;;4.50;4.20;;;21.90;99.90;;;;;;5007342;28;20470;-71
2023/10/01 03:31:46;;;;;;;3.87;3.77;;;21.90;99.90;;;;;;5004023;28;21015;-71
2023/10/01 03:34:28;;;;;;;3.80;3.63;;;21.80;99.90;;;;;;5004164;28;20505;-71
2023/10/01 03:36:58;;;;;;;5.40;5.00;;;21.80;99.90;;;;;;4997316;28;20488;-71
2023/10/01 03:39:26;;;;;;;4.37;4.27;;;21.80;99.90;;;;;;5004511;28;20477;-71
2023/10/01 03:41:54;;;;;;;3.83;3.63;;;21.80;99.90;;;;;;5006620;28;20450;-71
2023/10/01 03:44:59;;;;;;;4.73;4.43;;;21.80;99.90;;;;;;5003810;28;20493;-71
2023/10/01 03:47:10;;;;;;;4.70;4.40;;;21.80;99.90;;;;;;5007000;28;20434;-71
2023/10/01 03:49:40;;;;;;;4.33;4.03;;;21.80;99.90;;;;;;5005110;28;20462;-71
2023/10/01 03:52:09;;;;;;;4.53;4.33;;;21.80;99.90;;;;;;5003261;28;20211;-71
2023/10/01 03:57:18;;;;;;;4.20;3.90;;;21.80;99.90;;;;;;5006746;28;20565;-71
2023/10/01 03:59:51;;;;;;;4.60;4.30;;;21.80;99.90;;;;;;5003637;28;20488;-71
2023/10/01 04:02:28;;;;;;;4.00;3.80;;;21.80;99.90;;;;;;4999308;28;20508;-71
2023/10/01 04:04:58;;;;;;;3.93;3.83;;;21.80;99.90;;;;;;4996712;28;20474;-71
2023/10/01 04:07:31;;;;;;;4.60;4.40;;;21.80;99.90;;;;;;5003953;28;20454;-71
2023/10/01 04:09:58;;;;;;;4.33;4.13;;;21.80;99.90;;;;;;5009075;28;20552;-71
2023/10/01 04:12:28;;;;;;;4.13;3.93;;;21.80;99.90;;;;;;5003447;28;20473;-71
2023/10/01 04:15:01;;;;;;;4.50;4.20;;;21.80;99.90;;;;;;5006764;28;20540;-71
2023/10/01 04:17:29;;;;;;;4.87;4.50;;;21.80;99.90;;;;;;5005518;28;20539;-71
2023/10/01 04:20:00;;;;;;;4.77;4.47;;;21.80;99.90;;;;;;5003294;28;20480;-71
2023/10/01 04:22:29;;;;;;;4.90;4.60;;;21.80;99.90;;;;;;5005127;28;20491;-71
2023/10/01 04:25:09;;;;;;;5.20;4.80;;;21.80;99.90;;;;;;5006662;28;20457;-71
2023/10/01 04:27:36;;;;;;;4.80;4.50;;;21.70;99.90;;;;;;5004608;28;20445;-71
2023/10/01 04:30:08;;;;;;;5.13;4.77;;;21.80;99.90;;;;;;5002557;28;21054;-71
2023/10/01 04:32:36;;;;;;;4.60;4.40;;;21.80;99.90;;;;;;5004480;28;20447;-71
2023/10/01 04:35:14;;;;;;;4.97;4.57;;;21.80;99.90;;;;;;5006452;28;20443;-71
2023/10/01 04:37:42;;;;;;;4.70;4.50;;;21.70;99.90;;;;;;5003614;28;20485;-71
2023/10/01 04:40:31;;;;;;;5.00;4.80;;;21.70;99.90;;;;;;4985916;28;20502;-71
2023/10/01 04:43:08;;;;;;;4.50;4.20;;;21.70;99.90;;;;;;4993037;28;20517;-71
2023/10/01 04:45:37;;;;;;;5.07;4.73;;;21.70;99.90;;;;;;5004257;28;20449;-71
2023/10/01 04:48:15;;;;;;;4.97;4.67;;;21.70;99.90;;;;;;5003221;28;20446;-70
2023/10/01 04:50:42;;;;;;;4.40;4.23;;;21.70;99.90;;;;;;5003497;28;20982;-74
2023/10/01 04:53:13;;;;;;;5.53;5.33;;;21.70;99.90;;;;;;5003143;28;20443;-74
2023/10/01 04:55:42;;;;;;;5.07;4.77;;;21.70;99.90;;;;;;5005605;28;20461;-73
2023/10/01 04:58:12;;;;;;;4.70;4.50;;;21.70;99.90;;;;;;5006827;28;20478;-74
2023/10/01 05:00:44;;;;;;;4.50;4.30;;;21.70;99.90;;;;;;5003940;28;20480;-74
2023/10/01 05:03:14;;;;;;;4.50;4.30;;;21.70;99.90;;;;;;5005990;28;20464;-74
2023/10/01 05:05:42;;;;;;;5.20;4.90;;;21.70;99.90;;;;;;5004866;28;20446;-74
2023/10/01 05:08:12;;;;;;;5.17;4.93;;;21.70;99.90;;;;;;5003658;28;20510;-73
2023/10/01 05:10:51;;;;;;;5.40;5.10;;;21.70;99.90;;;;;;5003565;28;20993;-74
2023/10/01 05:13:22;;;;;;;5.33;5.10;;;21.70;99.90;;;;;;5002936;28;20447;-74
2023/10/01 05:15:52;;;;;;;5.57;5.37;;;21.70;99.90;;;;;;4995128;28;20446;-74
2023/10/01 05:18:20;;;;;;;9.20;4.37;;;21.70;99.90;;;;;;5003075;28;20478;-74
2023/10/01 05:20:48;;;;;;;4.90;4.70;;;21.70;99.90;;;;;;5002988;28;20451;-74
2023/10/01 05:23:15;;;;;;;4.47;4.30;;;21.70;99.90;;;;;;5002555;28;20510;-74
2023/10/01 05:25:45;;;;;;;4.70;4.50;;;21.70;99.90;;;;;;5003340;28;20474;-74
2023/10/01 05:28:23;;;;;;;5.47;5.10;;;21.70;99.90;;;;;;5002266;28;20454;-73
2023/10/01 05:30:57;;;;;;;5.00;4.70;;;21.80;99.90;;;;;;4994315;28;20439;-77
2023/10/01 05:33:25;;;;;;;4.60;4.30;;;21.90;99.90;;;;;;5001782;28;20882;-73
2023/10/01 05:35:57;;;;;;;4.80;4.50;;;21.90;99.90;;;;;;5004968;28;21015;-75
2023/10/01 05:38:26;;;;;;;5.27;4.97;;;22.00;99.90;;;;;;5005138;28;20485;-73
2023/10/01 05:40:57;;;;;;;4.70;4.50;;;22.10;99.90;;;;;;4994081;28;20481;-73
2023/10/01 05:43:27;;;;;;;4.90;4.70;;;22.10;99.90;;;;;;5001584;28;20478;-72
2023/10/01 05:46:01;;;;;;;6.20;5.13;;;22.20;99.90;;;;;;4992839;28;20451;-70
2023/10/01 05:48:32;;;;;;;5.10;4.80;;;22.20;99.90;;;;;;4998454;28;20887;-71
2023/10/01 05:51:00;;;;;;;4.80;4.50;;;22.20;99.90;;;;;;5003995;28;20823;-70
2023/10/01 05:53:28;;;;;;;4.53;4.23;;;22.20;99.90;;;;;;5004311;28;20891;-69
2023/10/01 05:55:56;;;;;;;4.63;4.43;;;22.20;99.90;;;;;;5004230;28;20454;-69
2023/10/01 05:58:26;;;;;;;4.23;4.13;;;22.30;99.90;;;;;;5004629;28;20910;-71
2023/10/01 06:01:05;;;;;;;5.00;4.80;;;22.20;99.90;;;;;;4993846;28;20451;-69
2023/10/01 06:03:40;;;;;;;4.90;4.60;;;22.30;99.90;;;;;;5001663;28;20525;-69
2023/10/01 06:06:09;;;;;;;5.00;4.70;;;22.30;99.90;;;;;;5003994;28;20457;-68
2023/10/01 06:08:46;;;;;;;5.20;4.80;;;22.30;99.90;;;;;;5003160;28;20509;-68
2023/10/01 06:11:17;;;;;;;5.33;4.93;;;22.30;99.90;;;;;;5001662;28;20820;-69
2023/10/01 06:13:53;;;;;;;5.17;4.87;;;22.30;99.90;;;;;;5003784;28;20816;-69
2023/10/01 06:16:23;;;;;;;5.00;4.60;;;22.40;99.90;;;;;;4997250;28;20961;-69
2023/10/01 06:19:01;;;;;;;4.70;4.30;;;22.40;99.70;;;;;;4992506;28;20506;-70
2023/10/01 06:21:32;;;;;;;5.03;4.63;;;22.40;99.90;;;;;;5001810;28;20530;-69
2023/10/01 06:24:04;;;;;;;5.00;4.77;;;22.40;99.60;;;;;;5004055;28;20456;-70
2023/10/01 06:26:36;;;;;;;5.60;5.20;;;22.40;99.50;;;;;;5001153;28;20525;-69
2023/10/01 06:29:08;;;;;;;4.60;4.40;;;22.50;99.50;;;;;;5004265;28;20524;-69
2023/10/01 06:31:52;;;;;;;4.57;4.27;;;22.50;99.40;;;;;;5002601;28;20529;-69
2023/10/01 06:34:23;;;;;;;5.57;5.27;;;22.50;99.30;;;;;;5000205;28;20451;-70
2023/10/01 06:36:58;;;;;;;5.23;5.03;;;22.50;99.30;;;;;;5005445;28;20983;-70
2023/10/01 06:39:25;;;;;;;5.43;5.03;;;22.50;99.00;;;;;;5005492;28;20501;-67
2023/10/01 06:42:17;;;;;;;5.77;5.43;;;22.50;99.00;;;;;;5001814;28;20447;-68
2023/10/01 06:44:43;;;;;;;4.70;4.30;;;22.50;99.00;;;;;;5003377;28;20442;-68
2023/10/01 06:47:17;;;;;;;4.93;4.60;;;22.60;98.90;;;;;;5004850;28;20935;-72
2023/10/01 06:50:14;;;;;;;5.27;4.97;;;22.60;98.80;;;;;;5002874;28;20477;-69
2023/10/01 06:52:46;;;;;;;4.87;4.60;;;22.60;99.00;;;;;;5003266;28;20486;-69
2023/10/01 06:58:00;;;;;;;6.32;6.03;;;22.60;99.30;;;;;;4990855;28;20547;-67
2023/10/01 07:00:33;;;;;;;8.03;7.30;;;22.60;98.90;;;;;;5004235;28;20263;-68
2023/10/01 07:03:16;;;;;;;3.90;3.70;;;22.70;98.50;;;;;;4999599;28;20470;-68
2023/10/01 07:05:51;;;;;;;4.27;3.97;;;22.70;98.20;;;;;;4999730;28;20457;-67
2023/10/01 07:08:20;;;;;;;6.77;3.87;;;22.80;98.10;;;;;;5000130;28;20455;-66
2023/10/01 07:10:50;;;;;;;4.83;4.53;;;22.80;98.00;;;;;;5001779;28;20841;-67
2023/10/01 07:13:22;;;;;;;3.90;3.70;;;22.80;98.00;;;;;;5001199;28;20474;-67
2023/10/01 07:15:53;;;;;;;3.17;3.03;;;22.80;97.80;;;;;;5003898;28;20438;-67
2023/10/01 07:18:22;;;;;;;4.20;3.93;;;22.90;97.70;;;;;;4999535;28;20918;-68
2023/10/01 07:20:50;;;;;;;3.50;3.30;;;22.90;97.60;;;;;;5003153;28;20450;-67
2023/10/01 07:23:21;;;;;;;3.40;3.20;;;22.90;97.60;;;;;;4984005;28;21305;-67
2023/10/01 07:26:00;;;;;;;4.50;4.07;;;22.90;97.70;;;;;;4982215;28;20836;-67
2023/10/01 07:28:27;;;;;;;3.67;3.43;;;22.90;97.40;;;;;;4981404;28;20527;-68
2023/10/01 07:30:56;;;;;;;4.03;3.47;;;22.90;97.40;;;;;;5068477;23;20528;-68
2023/10/01 07:33:28;;;;;;;3.67;3.50;;;22.90;97.40;;;;;;5039629;28;20826;-68
2023/10/01 07:36:11;;;;;;;3.93;3.73;;;22.90;97.30;;;;;;5031752;28;20447;-69
2023/10/01 07:38:48;;;;;;;3.73;3.47;;;22.80;97.20;;;;;;5038931;28;20848;-68
2023/10/01 07:41:16;;;;;;;3.73;3.53;;;22.80;97.10;;;;;;5043301;28;20495;-69
2023/10/01 07:43:43;;;;;;;4.33;4.00;;;22.90;97.20;;;;;;5041302;28;20536;-68
2023/10/01 07:46:15;;;;;;;4.07;3.87;;;22.90;97.40;;;;;;5039545;28;20940;-68
2023/10/01 07:48:47;;;;;;;3.77;3.47;;;22.90;97.60;;;;;;5033135;28;20474;-67
2023/10/01 07:54:02;;;;;;;4.07;3.77;;;23.10;97.30;;;;;;5031543;28;20491;-69
2023/10/01 07:56:36;;;;;;;4.10;3.80;;;23.10;97.20;;;;;;5037734;28;20446;-66
2023/10/01 08:04:57;;;;;;;4.03;3.73;;;23.20;97.10;;;;;;5077403;28;20518;-67
2023/10/01 08:07:39;;;;;;;4.30;4.10;;;23.20;97.20;;;;;;5087506;28;20447;-67
2023/10/01 08:10:18;;;;;;;3.90;3.70;;;23.20;97.20;;;;;;5086239;28;20470;-66
2023/10/01 08:13:06;;;;;;;4.90;4.40;;;23.10;97.20;;;;;;5088752;28;20439;-67
2023/10/01 08:15:39;;;;;;;3.60;3.40;;;23.10;97.30;;;;;;5089247;28;20427;-65
2023/10/01 08:21:02;;;;;;;3.77;3.57;;;23.00;97.00;;;;;;5088694;28;21011;-67
2023/10/01 08:23:31;;;;;;;3.60;3.40;;;23.00;96.90;;;;;;5088630;28;20439;-65
2023/10/01 08:26:39;;;;;;;4.43;3.67;;;23.00;97.20;;;;;;5080532;28;20529;-66
2023/10/01 08:28:56;;;;;;;3.30;3.20;;;23.00;97.20;;;;;;5088357;28;20530;-66
2023/10/01 08:32:07;;;;;;;3.90;3.70;;;23.00;97.80;;;;;;5088375;28;20536;-66
2023/10/01 08:35:01;;;;;;;3.50;3.40;;;23.10;97.40;;;;;;5085000;28;20523;-67
2023/10/01 08:37:23;;;;;;;3.73;3.53;;;23.10;97.40;;;;;;5089290;28;20447;-65
2023/10/01 08:39:53;;;;;;;3.70;3.50;;;23.00;97.40;;;;;;5093607;28;20472;-64
2023/10/01 08:42:22;;;;;;;3.40;3.23;;;23.00;97.40;;;;;;5087086;28;20930;-66
2023/10/01 08:44:50;;;;;;;4.17;3.87;;;23.00;97.40;;;;;;5088407;28;20443;-67
2023/10/01 08:47:26;;;;;;;4.20;3.80;;;23.00;97.50;;;;;;5087947;28;20446;-65
2023/10/01 08:50:17;;;;;;;4.63;4.23;;;23.00;97.90;;;;;;5087916;28;20833;-66
2023/10/01 08:52:55;;;;;;;4.17;3.97;;;23.10;97.80;;;;;;5087479;28;20434;-65
2023/10/01 08:55:24;;;;;;;4.27;4.07;;;23.20;97.90;;;;;;5087798;28;21006;-64
2023/10/01 08:57:54;;;;;;;5.00;4.60;;;23.10;97.60;;;;;;5087275;28;20929;-65
2023/10/01 09:00:24;;;;;;;4.13;3.90;;;23.10;97.50;;;;;;5087370;28;20849;-64
2023/10/01 09:03:07;;;;;;;4.00;3.80;;;23.10;97.70;;;;;;5089394;28;20455;-65
2023/10/01 09:05:46;;;;;;;4.10;3.80;;;23.10;97.60;;;;;;5087827;28;20450;-64
2023/10/01 09:08:29;;;;;;;4.43;4.13;;;23.10;97.40;;;;;;5081711;28;20495;-63
2023/10/01 09:11:00;;;;;;;5.33;4.20;;;23.20;97.70;;;;;;5087648;28;20462;-63
2023/10/01 09:13:30;;;;;;;3.90;3.60;;;23.20;97.40;;;;;;5073583;28;20867;-64
2023/10/01 09:16:11;;;;;;;3.70;3.50;;;23.20;97.30;;;;;;5075832;28;20428;-65
2023/10/01 09:19:03;;;;;;;6.93;4.93;;;23.20;97.00;;;;;;5076872;28;20435;-65
2023/10/01 09:21:44;;;;;;;3.97;3.77;;;23.10;96.90;;;;;;5074025;28;20471;-65
2023/10/01 09:24:38;;;;;;;4.10;3.80;;;23.00;97.20;;;;;;5068394;28;20815;-65
2023/10/01 09:27:18;;;;;;;3.90;3.70;;;23.10;96.90;;;;;;5066880;28;20447;-66
2023/10/01 09:29:48;;;;;;;4.17;3.90;;;23.10;96.80;;;;;;5074292;28;20475;-69
2023/10/01 09:32:19;;;;;;;4.50;4.10;;;23.00;96.60;;;;;;5072407;28;20538;-67
2023/10/01 09:35:01;;;;;;;4.40;4.20;;;23.00;96.70;;;;;;5076476;28;20480;-66
2023/10/01 09:37:52;;;;;;;4.57;4.17;;;23.00;96.90;;;;;;5073147;28;20447;-67
2023/10/01 09:40:34;;;;;;;4.43;4.10;;;23.00;96.80;;;;;;5068168;28;20570;-67
2023/10/01 09:43:18;;;;;;;5.50;5.10;;;23.10;96.40;;;;;;5065544;28;20463;-66
2023/10/01 09:45:52;;;;;;;5.47;4.87;;;23.10;96.40;;;;;;5073702;28;20455;-65
2023/10/01 09:48:33;;;;;;;5.37;4.87;;;23.00;96.30;;;;;;5073745;28;20859;-64
2023/10/01 09:51:13;;;;;;;4.20;3.90;;;23.10;96.20;;;;;;5064194;28;20645;-65
2023/10/01 09:53:54;;;;;;;5.60;5.10;;;23.00;96.20;;;;;;5080787;28;20450;-65
2023/10/01 09:56:29;;;;;;;7.17;5.53;;;23.00;96.10;;;;;;5073611;28;20505;-64
2023/10/01 09:59:03;;;;;;;5.33;4.83;;;23.00;96.20;;;;;;5073279;28;20474;-66
2023/10/01 10:01:35;;;;;;;4.90;4.50;;;23.00;96.10;;;;;;5073240;28;20532;-65
2023/10/01 10:04:04;;;;;;;5.63;5.23;;;23.10;96.20;;;;;;5065236;28;20969;-66
2023/10/01 10:06:38;;;;;;;14.50;6.23;;;23.10;96.10;;;;;;5073316;28;20501;-66
2023/10/01 10:09:25;;;;;;;6.23;4.90;;;23.00;96.20;;;;;;5065495;28;20443;-67
2023/10/01 10:11:54;;;;;;;6.60;6.10;;;23.00;96.20;;;;;;5073060;28;20532;-66
2023/10/01 10:14:58;;;;;;;5.40;4.90;;;23.00;96.10;;;;;;5073414;28;20450;-72
2023/10/01 10:17:27;;;;;;;4.63;4.13;;;23.00;96.20;;;;;;5064495;28;20526;-66
2023/10/01 10:20:15;;;;;;;4.77;4.37;;;23.00;96.40;;;;;;5072901;28;20544;-66
2023/10/01 10:23:16;;;;;;;6.20;5.60;;;23.00;96.30;;;;;;5072584;28;20432;-67
2023/10/01 10:25:45;;;;;;;8.33;5.70;;;23.10;96.50;;;;;;5072624;28;20458;-67
2023/10/01 10:28:24;;;;;;;7.00;4.97;;;23.10;96.40;;;;;;5073021;28;20482;-64
2023/10/01 10:31:29;;;;;;;5.77;5.27;;;23.00;96.50;;;;;;5072703;28;20534;-64
2023/10/01 10:34:36;;;;;;;7.33;5.80;;;23.00;96.60;;;;;;5072358;28;20524;-63
2023/10/01 10:37:43;;;;;;;7.33;5.40;;;23.00;96.50;;;;;;5072158;28;20644;-64
2023/10/01 10:40:22;;;;;;;5.87;5.33;;;23.10;96.90;;;;;;5065382;28;20981;-64
2023/10/01 10:43:18;;;;;;;5.37;4.70;;;23.10;96.60;;;;;;5072308;28;20447;-64
2023/10/01 10:46:11;;;;;;;6.27;5.40;;;23.10;96.60;;;;;;5073831;28;20524;-64
2023/10/01 10:49:02;;;;;;;6.73;6.10;;;23.10;96.60;;;;;;5072460;28;20441;-63
2023/10/01 10:51:49;;;;;;;5.90;4.53;;;23.10;97.00;;;;;;5073136;28;20486;-67
2023/10/01 10:54:31;;;;;;;6.53;5.77;;;23.10;96.60;;;;;;5066493;28;20439;-67
2023/10/01 10:56:59;;;;;;;4.70;4.30;;;23.10;96.70;;;;;;5072484;28;20442;-66
2023/10/01 10:59:32;;;;;;;5.90;5.30;;;23.10;96.60;;;;;;5072229;28;20462;-68
2023/10/01 11:02:00;;;;;;;5.00;4.60;;;23.10;96.60;;;;;;5071823;28;21081;-66
2023/10/01 11:04:32;;;;;;;6.40;5.80;;;23.10;96.60;;;;;;5071793;28;20443;-65
2023/10/01 11:07:06;;;;;;;4.90;4.43;;;23.10;96.60;;;;;;5072090;28;20490;-67
2023/10/01 11:09:34;;;;;;;5.67;4.67;;;23.10;96.60;;;;;;5072092;28;20968;-65
2023/10/01 11:12:18;;;;;;;9.70;5.80;;;23.10;96.60;;;;;;5074282;28;20996;-66
2023/10/01 11:15:19;;;;;;;5.97;5.53;;;23.10;96.70;;;;;;5071880;28;20448;-67
2023/10/01 11:17:47;;;;;;;5.73;5.30;;;23.00;96.70;;;;;;5071776;28;20951;-65
2023/10/01 11:20:22;;;;;;;5.60;5.10;;;23.00;96.80;;;;;;5071975;28;20475;-65
2023/10/01 11:22:54;;;;;;;5.17;4.77;;;23.00;97.00;;;;;;5069871;28;20471;-68
2023/10/01 11:25:23;;;;;;;5.87;5.37;;;23.00;97.10;;;;;;5071832;28;20806;-68
2023/10/01 11:28:05;;;;;;;6.23;5.57;;;23.00;97.10;;;;;;5071769;28;20512;-66
2023/10/01 11:30:42;;;;;;;6.90;5.40;;;23.00;97.40;;;;;;5071769;28;20846;-66
2023/10/01 11:33:28;;;;;;;5.73;5.33;;;22.90;97.50;;;;;;5064104;28;20459;-66
2023/10/01 11:38:46;;;;;;;6.20;5.70;;;22.90;97.80;;;;;;5069864;28;20462;-66
2023/10/01 11:41:18;;;;;;;6.60;6.20;;;22.80;97.80;;;;;;5071644;28;20919;-66
2023/10/01 11:44:00;;;;;;;6.70;6.20;;;22.70;98.00;;;;;;5071355;28;20895;-65
2023/10/01 11:46:32;;;;;;;5.83;5.37;;;22.70;98.00;;;;;;5071757;28;20446;-66
2023/10/01 11:49:15;;;;;;;6.10;5.70;;;22.70;98.10;;;;;;5069964;28;20454;-66
2023/10/01 11:51:50;;;;;;;5.07;4.60;;;22.70;98.50;;;;;;5069796;28;20474;-66
2023/10/01 11:54:21;;;;;;;6.50;5.90;;;22.80;98.10;;;;;;5071705;28;20457;-66
2023/10/01 11:57:04;;;;;;;6.40;5.57;;;22.80;97.90;;;;;;5071443;28;20443;-66
2023/10/01 11:59:32;;;;;;;6.50;5.33;;;22.90;97.90;;;;;;5071279;28;21035;-65
2023/10/01 12:02:18;;;;;;;5.73;5.33;;;22.90;97.70;;;;;;5071193;28;20576;-66
2023/10/01 12:04:48;;;;;;;6.43;5.27;;;22.90;97.70;;;;;;5071461;28;20532;-65
2023/10/01 12:07:20;;;;;;;5.50;4.97;;;22.90;98.30;;;;;;5071595;28;20531;-66
2023/10/01 12:09:52;;;;;;;5.97;5.00;;;22.90;98.70;;;;;;5071374;28;20474;-64
2023/10/01 12:12:21;;;;;;;5.60;5.10;;;23.00;98.20;;;;;;5071116;28;20447;-66
2023/10/01 12:14:53;;;;;;;5.63;5.13;;;23.00;98.00;;;;;;5071200;28;20527;-65
2023/10/01 12:17:30;;;;;;;8.13;4.67;;;23.10;98.10;;;;;;5071413;28;20826;-69
2023/10/01 12:23:10;;;;;;;5.37;4.73;;;23.10;98.10;;;;;;5076994;28;20487;-65
2023/10/01 12:25:47;;;;;;;8.90;4.30;;;23.10;98.00;;;;;;5070805;28;20826;-67
2023/10/01 12:28:24;;;;;;;5.70;5.17;;;23.10;98.50;;;;;;5064205;28;20471;-67
2023/10/01 12:30:57;;;;;;;5.83;5.33;;;23.20;98.20;;;;;;5071113;28;20834;-66
2023/10/01 12:33:38;;;;;;;6.30;5.07;;;23.20;98.10;;;;;;5074801;28;20441;-67
2023/10/01 12:36:11;;;;;;;5.03;4.53;;;23.20;98.10;;;;;;5071311;28;20439;-67
2023/10/01 12:38:37;;;;;;;4.70;4.40;;;23.20;97.90;;;;;;5071163;28;20520;-66
2023/10/01 12:41:05;;;;;;;5.83;5.37;;;23.20;98.00;;;;;;5071142;28;20896;-67
2023/10/01 12:43:39;;;;;;;5.80;5.20;;;23.30;98.10;;;;;;5074513;28;20943;-70
2023/10/01 12:46:09;;;;;;;5.40;5.00;;;23.30;97.90;;;;;;5071151;28;20455;-72
2023/10/01 12:49:12;;;;;;;5.63;4.87;;;23.30;97.90;;;;;;5075130;28;20450;-74
2023/10/01 12:51:34;;;;;;;5.67;5.13;;;23.20;97.90;;;;;;5069826;28;20504;-67
2023/10/01 12:54:00;;;;;;;5.67;5.03;;;23.20;98.10;;;;;;5074326;28;21016;-71
2023/10/01 12:56:44;;;;;;;4.43;4.03;;;23.30;98.40;;;;;;5075161;28;20446;-71
2023/10/01 12:59:18;;;;;;;6.10;5.50;;;23.20;98.10;;;;;;5074575;28;20532;-69
2023/10/01 13:01:50;;;;;;;5.20;4.53;;;23.30;98.10;;;;;;5074123;28;20996;-66
2023/10/01 13:04:38;;;;;;;5.20;4.70;;;23.20;98.00;;;;;;5074752;28;20459;-68
2023/10/01 13:07:07;;;;;;;6.10;5.70;;;23.20;98.30;;;;;;5074704;28;20442;-66
2023/10/01 13:09:53;;;;;;;5.87;5.37;;;23.20;97.90;;;;;;5072682;28;20455;-66
2023/10/01 13:12:25;;;;;;;6.17;5.70;;;23.20;97.90;;;;;;5068193;28;20515;-69
2023/10/01 13:17:38;;;;;;;5.43;4.93;;;23.30;97.80;;;;;;5071176;28;20439;-66
2023/10/01 13:20:22;;;;;;;6.63;6.03;;;23.20;97.80;;;;;;5077275;28;20849;-67
2023/10/01 13:22:51;;;;;;;6.23;5.73;;;23.20;98.00;;;;;;5074201;28;20486;-67
2023/10/01 13:25:23;;;;;;;8.60;6.20;;;23.30;97.70;;;;;;5073421;28;20443;-67
2023/10/01 13:28:01;;;;;;;6.37;5.77;;;23.30;97.80;;;;;;5074362;28;20530;-67
2023/10/01 13:31:03;;;;;;;5.67;5.27;;;23.30;97.80;;;;;;5074641;28;20470;-67
2023/10/01 13:33:23;;;;;;;6.03;5.53;;;23.30;97.80;;;;;;5067378;28;20435;-67
2023/10/01 13:35:58;;;;;;;5.20;4.80;;;23.30;97.80;;;;;;5074248;28;20440;-67
2023/10/01 13:38:52;;;;;;;6.60;5.43;;;23.30;97.70;;;;;;5074357;28;20447;-67
2023/10/01 14:08:54;;;;;;;5.00;4.60;;;23.60;98.00;;;;;;5073304;28;20985;-68
2023/10/01 14:11:39;;;;;;;5.00;4.70;;;23.70;98.10;;;;;;5073259;28;20848;-68
2023/10/01 14:14:16;;;;;;;5.57;5.00;;;23.70;98.10;;;;;;5073460;28;20435;-66
2023/10/01 14:17:12;;;;;;;5.33;4.93;;;23.70;98.20;;;;;;5073389;28;20446;-68
2023/10/01 14:19:41;;;;;;;5.50;5.00;;;23.70;98.30;;;;;;5068263;28;20490;-68